Aviation Digital Data Service (ADDS)

Output produced by METARs form (1610 UTC 19 November 2017)
found at http://aviationweather.gov/adds/metars/
 
KLFT 191329Z 1913/2012 02010G19KT P6SM SKC 
     FM191800 02015KT P6SM SKC 
     FM192300 36006KT P6SM SKC